world map with NFNR marked

NFNR - Airport

This information may not be accurate or current and is not valid for navigation or flight planning. No warranty of fitness for any purpose is made or implied.

flag of Fiji

Donate via PayPal

Additional information is available on the NEW Great Circle Mapper

Location
City:  Elsee, Rotuma Island, Fiji
ICAO / IATA:NFNR / RTA

Details
Type:Airport (Aerodrome, Airfield)
Latitude:12°28'57"S (-12.482499)
Longitude:177°04'16"E (177.071111)
Elevation:22 ft (7 m)
Runways:1
Longest:4902 ft (1494 m)

Time
Timezone:UTC+12 (DST+15)
Local Time:

Weather
METAR:NFNR  200600Z 00000KT 50KM SCT028 BKN300 28/24 Q1008

Related Locations
Nearby:
Farthest:DFOF: 12433 mi / 20008 km
Safane [Safane Airport], BF

Find:

   beyond  
but within

Other Information
Maps:
Sources:

  


 


Great Circle Mapper   Great Circle Mapper
Great Circle Mapper FAQ   Great Circle Mapper FAQ
  Karl's Home Page
KLSē   KLSē Home
   GC on Facebook
Airlines of the World   Airlines of the World
Donate via PayPal


Copyright © 2004-2018, Karl L. Swartz. All rights reserved.
All trademarks mentioned herein belong to their respective owners.

Please see credits for attribution and copyright information.

Karl Swartz <karl@kls2.com>
  Powered by FreeBSD
Valid HTML 4.01!
Labeled with ICRA
hCard Microformat
Geo Microformat